createdAt,value
2019-04-26T00:00:18.074Z,61.35
2019-04-26T00:04:26.851Z,61.01
2019-04-26T00:08:33.664Z,61.09
2019-04-26T00:12:51.098Z,61.54
2019-04-26T00:17:01.799Z,61.61
2019-04-26T00:21:09.813Z,62.61
2019-04-26T00:25:18.623Z,62.63
2019-04-26T00:29:25.400Z,62.67
2019-04-26T00:33:32.248Z,62.63
2019-04-26T00:37:38.946Z,62.58
2019-04-26T00:41:46.149Z,63.00
2019-04-26T00:45:56.375Z,64.02
2019-04-26T00:50:04.225Z,64.34
2019-04-26T00:54:11.691Z,63.61
2019-04-26T00:58:18.797Z,63.38
2019-04-26T01:02:39.698Z,64.00
2019-04-26T01:06:48.038Z,63.74
2019-04-26T01:10:54.742Z,64.14
2019-04-26T01:15:01.446Z,64.55
2019-04-26T01:19:12.258Z,64.78
2019-04-26T01:23:22.998Z,65.19
2019-04-26T01:27:32.388Z,65.58
2019-04-26T01:32:07.989Z,65.97
2019-04-26T01:36:16.720Z,66.81
2019-04-26T01:40:26.066Z,66.73
2019-04-26T01:44:48.254Z,66.69
2019-04-26T01:49:02.779Z,66.79
2019-04-26T01:53:09.627Z,66.62
2019-04-26T01:57:17.002Z,67.76
2019-04-26T02:01:51.400Z,67.41
2019-04-26T02:05:58.317Z,67.60
2019-04-26T02:10:06.207Z,67.26
2019-04-26T02:14:13.131Z,67.88
2019-04-26T02:18:19.936Z,67.46
2019-04-26T02:22:36.321Z,68.00
2019-04-26T02:26:45.516Z,68.45
2019-04-26T02:30:52.878Z,68.62
2019-04-26T02:35:00.061Z,68.26
2019-04-26T02:39:24.255Z,68.18
2019-04-26T02:43:32.090Z,68.18
2019-04-26T02:47:47.261Z,67.67
2019-04-26T02:52:33.329Z,68.26
2019-04-26T02:56:43.304Z,68.03
2019-04-26T03:00:51.362Z,67.72
2019-04-26T03:05:07.531Z,67.19
2019-04-26T03:09:17.294Z,66.98
2019-04-26T03:13:47.905Z,67.29
2019-04-26T03:18:19.299Z,67.38
2019-04-26T03:23:07.949Z,67.11
2019-04-26T03:27:43.433Z,67.58
2019-04-26T03:32:36.254Z,67.66
2019-04-26T03:37:22.959Z,68.69
2019-04-26T03:42:30.769Z,69.12
2019-04-26T03:46:57.033Z,68.31
2019-04-26T03:51:17.746Z,68.07
2019-04-26T03:57:03.151Z,68.59
2019-04-26T04:01:12.287Z,68.73
2019-04-26T04:05:37.273Z,68.83
2019-04-26T04:09:49.511Z,68.20
2019-04-26T04:14:05.056Z,68.82
2019-04-26T04:18:20.879Z,68.76
2019-04-26T04:22:32.623Z,68.35
2019-04-26T04:27:11.586Z,68.91
2019-04-26T04:31:29.457Z,68.11
2019-04-26T04:35:45.664Z,68.22
2019-04-26T04:40:37.155Z,68.14
2019-04-26T04:45:58.211Z,68.49
2019-04-26T04:50:44.936Z,68.16
2019-04-26T04:55:07.735Z,69.54
2019-04-26T04:59:24.060Z,70.16
2019-04-26T05:03:53.191Z,70.66
2019-04-26T05:08:25.197Z,71.51
2019-04-26T05:13:03.452Z,71.44
2019-04-26T05:17:41.787Z,72.04
2019-04-26T05:22:37.472Z,71.38
2019-04-26T05:28:15.527Z,72.03
2019-04-26T05:33:07.087Z,71.91
2019-04-26T05:38:17.942Z,72.63
2019-04-26T05:43:03.344Z,73.10
2019-04-26T05:48:11.562Z,73.26
2019-04-26T05:53:23.629Z,73.19
2019-04-26T05:58:05.517Z,72.40
2019-04-26T06:02:56.806Z,71.94
2019-04-26T06:07:37.142Z,72.42
2019-04-26T06:12:01.963Z,73.01
2019-04-26T06:17:33.660Z,72.70
2019-04-26T06:22:16.196Z,73.76
2019-04-26T06:27:13.616Z,74.65
2019-04-26T06:31:22.963Z,75.23
2019-04-26T06:35:34.800Z,75.38
2019-04-26T06:40:02.208Z,75.95
2019-04-26T06:44:17.075Z,76.10
2019-04-26T06:49:49.603Z,76.77
2019-04-26T06:54:19.771Z,75.87
2019-04-26T06:59:35.705Z,76.49
2019-04-26T07:04:21.539Z,75.95
2019-04-26T07:08:57.687Z,75.61
2019-04-26T07:13:48.445Z,75.73
2019-04-26T07:19:06.581Z,76.18
2019-04-26T07:24:29.770Z,76.48
2019-04-26T07:29:29.480Z,78.31
2019-04-26T07:34:09.539Z,79.44
2019-04-26T07:39:20.323Z,79.61
2019-04-26T07:44:23.090Z,80.09
2019-04-26T07:49:13.213Z,80.25
2019-04-26T07:54:05.099Z,80.07
2019-04-26T07:59:18.403Z,80.47
2019-04-26T08:03:38.464Z,80.74
2019-04-26T08:07:52.818Z,80.44
2019-04-26T08:12:07.959Z,80.31
2019-04-26T08:16:48.556Z,79.93
2019-04-26T08:21:09.941Z,80.07
2019-04-26T08:25:17.687Z,79.35
2019-04-26T08:29:29.845Z,79.94
2019-04-26T08:33:48.558Z,80.21
2019-04-26T08:37:57.454Z,80.45
2019-04-26T08:42:12.120Z,80.26
2019-04-26T08:46:38.566Z,80.48
2019-04-26T08:50:48.300Z,79.49
2019-04-26T08:54:58.205Z,78.42
2019-04-26T08:59:17.805Z,79.34
2019-04-26T09:03:56.008Z,79.47
2019-04-26T09:08:06.515Z,79.10
2019-04-26T09:12:23.168Z,79.18
2019-04-26T09:16:27.428Z,78.64
2019-04-26T09:20:34.179Z,77.82
2019-04-26T09:24:55.110Z,78.39
2019-04-26T09:29:07.593Z,78.27
2019-04-26T09:33:18.260Z,77.07
2019-04-26T09:37:25.601Z,76.89
2019-04-26T09:41:32.341Z,77.21
2019-04-26T09:46:04.253Z,76.63
2019-04-26T09:50:28.441Z,77.40
2019-04-26T09:54:35.199Z,77.97
2019-04-26T09:58:41.885Z,78.57
2019-04-26T10:02:48.754Z,77.62
2019-04-26T10:06:55.652Z,77.88
2019-04-26T10:11:05.774Z,78.15
2019-04-26T10:15:22.481Z,78.22
2019-04-26T10:19:33.997Z,78.80
2019-04-26T10:23:40.938Z,78.88
2019-04-26T10:27:47.977Z,78.86
2019-04-26T10:31:54.813Z,78.45
2019-04-26T10:36:01.484Z,78.40
2019-04-26T10:40:08.670Z,78.20
2019-04-26T10:44:15.664Z,78.01
2019-04-26T10:48:23.297Z,78.79
2019-04-26T10:52:58.097Z,78.64
2019-04-26T10:57:11.687Z,78.90
2019-04-26T11:01:19.463Z,79.55
2019-04-26T11:05:26.195Z,79.73
2019-04-26T11:09:32.945Z,80.40
2019-04-26T11:13:39.663Z,79.62
2019-04-26T11:17:50.024Z,79.71
2019-04-26T11:21:56.089Z,79.57
2019-04-26T11:26:02.977Z,79.82
2019-04-26T11:30:14.323Z,80.52
2019-04-26T11:38:31.172Z,78.96
2019-04-26T11:40:14.006Z,79.68
2019-04-26T11:42:36.166Z,78.16
2019-04-26T11:46:44.926Z,78.33
2019-04-26T11:50:52.000Z,78.06
2019-04-26T11:54:59.662Z,77.74
2019-04-26T11:59:06.431Z,77.88
2019-04-26T12:03:13.197Z,76.01
2019-04-26T12:07:23.517Z,75.44
2019-04-26T12:11:35.007Z,75.29
2019-04-26T12:15:39.016Z,75.28
2019-04-26T12:19:48.143Z,73.97
2019-04-26T12:23:56.411Z,74.87
2019-04-26T12:28:06.103Z,75.06
2019-04-26T12:32:11.831Z,74.16
2019-04-26T12:36:19.372Z,74.05
2019-04-26T12:40:26.123Z,75.51
2019-04-26T12:44:41.224Z,73.95
2019-04-26T12:48:49.992Z,73.74
2019-04-26T12:52:57.373Z,74.70
2019-04-26T12:57:05.815Z,76.66
2019-04-26T13:01:14.358Z,76.56
2019-04-26T13:05:21.348Z,77.34
2019-04-26T13:09:28.432Z,77.21
2019-04-26T13:13:42.283Z,77.43
2019-04-26T13:17:56.910Z,76.33
2019-04-26T13:22:03.694Z,77.63
2019-04-26T13:26:10.428Z,78.34
2019-04-26T13:30:17.184Z,78.31
2019-04-26T13:34:23.874Z,80.41
2019-04-26T13:38:30.653Z,80.07
2019-04-26T13:42:37.438Z,79.98
2019-04-26T13:47:08.112Z,80.89
2019-04-26T13:51:15.606Z,79.77
2019-04-26T13:55:25.402Z,78.25
2019-04-26T13:59:31.694Z,78.12
2019-04-26T14:03:39.371Z,76.78
2019-04-26T14:07:46.095Z,77.36
2019-04-26T14:11:53.805Z,75.95
2019-04-26T14:16:00.686Z,75.77
2019-04-26T14:20:07.644Z,75.62
2019-04-26T14:24:25.199Z,74.20
2019-04-26T14:28:31.890Z,73.52
2019-04-26T14:32:38.586Z,71.00
2019-04-26T14:36:45.244Z,69.77
2019-04-26T14:41:03.687Z,69.75
2019-04-26T14:45:06.118Z,70.62
2019-04-26T14:49:10.875Z,69.04
2019-04-26T14:53:17.609Z,70.02
2019-04-26T14:57:31.309Z,70.60
2019-04-26T15:02:06.359Z,69.96
2019-04-26T15:06:16.857Z,70.96
2019-04-26T15:10:43.153Z,71.44
2019-04-26T15:14:38.802Z,70.88
2019-04-26T15:18:45.647Z,72.32
2019-04-26T15:22:52.918Z,71.37
2019-04-26T15:27:01.811Z,73.76
2019-04-26T15:31:08.208Z,73.54
2019-04-26T15:35:17.657Z,74.09
2019-04-26T15:39:39.576Z,73.84
2019-04-26T15:43:59.455Z,75.44
2019-04-26T15:48:37.159Z,74.34
2019-04-26T15:52:43.973Z,69.00
2019-04-26T15:56:53.800Z,67.71
2019-04-26T16:00:59.382Z,67.39
2019-04-26T16:05:06.321Z,69.62
2019-04-26T16:09:19.883Z,65.91
2019-04-26T16:13:24.180Z,65.00
2019-04-26T16:17:31.024Z,64.36
2019-04-26T16:21:37.732Z,63.63
2019-04-26T16:25:44.456Z,63.91
2019-04-26T16:29:59.633Z,63.91
2019-04-26T16:34:10.834Z,64.37
2019-04-26T16:38:36.137Z,64.69
2019-04-26T16:42:42.816Z,64.46
2019-04-26T16:46:54.031Z,64.86
2019-04-26T16:51:00.944Z,65.28
2019-04-26T16:55:15.293Z,63.18
2019-04-26T16:59:22.378Z,63.44
2019-04-26T17:03:26.259Z,62.62
2019-04-26T17:07:39.034Z,63.21
2019-04-26T17:11:43.377Z,62.85
2019-04-26T17:15:51.976Z,65.55
2019-04-26T17:19:59.264Z,64.59
2019-04-26T17:24:43.813Z,64.68
2019-04-26T17:28:48.554Z,66.59
2019-04-26T17:32:56.344Z,68.48
2019-04-26T17:37:11.703Z,68.87
2019-04-26T17:41:13.840Z,69.68
2019-04-26T17:45:21.281Z,69.21
2019-04-26T17:49:28.976Z,69.16
2019-04-26T17:53:36.908Z,69.61
2019-04-26T17:57:48.525Z,70.04
2019-04-26T18:02:00.557Z,70.65
2019-04-26T18:06:01.051Z,70.56
2019-04-26T18:10:10.390Z,71.10
2019-04-26T18:14:21.532Z,71.20
2019-04-26T18:18:46.241Z,70.57
2019-04-26T18:22:57.250Z,71.69
2019-04-26T18:27:04.379Z,71.81
2019-04-26T18:31:16.429Z,71.52
2019-04-26T18:35:23.411Z,71.31
2019-04-26T18:39:30.396Z,71.45
2019-04-26T18:43:37.115Z,71.51
2019-04-26T18:47:45.328Z,72.29
2019-04-26T18:51:54.663Z,70.97
2019-04-26T18:56:03.385Z,70.98
2019-04-26T19:00:15.453Z,70.21
2019-04-26T19:04:23.603Z,70.30
2019-04-26T19:08:43.639Z,70.88
2019-04-26T19:12:41.196Z,71.55
2019-04-26T19:17:07.716Z,71.70
2019-04-26T19:21:21.902Z,72.73
2019-04-26T19:25:33.290Z,73.12
2019-04-26T19:29:38.459Z,73.45
2019-04-26T19:33:47.678Z,73.56
2019-04-26T19:37:53.621Z,74.69
2019-04-26T19:42:02.368Z,75.11
2019-04-26T19:46:25.210Z,74.91
2019-04-26T19:50:53.642Z,74.88
2019-04-26T19:55:20.078Z,75.60
2019-04-26T19:59:27.505Z,75.98
2019-04-26T20:03:35.409Z,75.87
2019-04-26T20:07:42.128Z,75.55
2019-04-26T20:11:52.929Z,75.95
2019-04-26T20:16:02.726Z,76.72
2019-04-26T20:20:19.366Z,76.81
2019-04-26T20:24:19.722Z,76.81
2019-04-26T20:28:29.686Z,76.68
2019-04-26T20:32:37.403Z,77.21
2019-04-26T20:36:52.569Z,77.52
2019-04-26T20:42:05.077Z,77.33
2019-04-26T20:46:16.051Z,77.66
2019-04-26T20:50:28.501Z,77.72
2019-04-26T20:54:34.118Z,77.82
2019-04-26T20:58:47.091Z,78.12
2019-04-26T21:03:01.513Z,77.96
2019-04-26T21:07:06.756Z,78.17
2019-04-26T21:11:13.712Z,78.61
2019-04-26T21:15:24.017Z,78.28
2019-04-26T21:19:32.746Z,78.35
2019-04-26T21:23:39.956Z,78.49
2019-04-26T21:35:20.375Z,78.14
2019-04-26T21:39:44.161Z,78.69
2019-04-26T21:43:50.903Z,78.32
2019-04-26T21:47:57.755Z,79.07
2019-04-26T21:52:06.455Z,79.02
2019-04-26T21:56:18.768Z,78.42
2019-04-26T22:00:49.714Z,78.68
2019-04-26T22:04:58.139Z,78.24
2019-04-26T22:09:21.126Z,77.57
2019-04-26T22:13:37.236Z,76.25
2019-04-26T22:17:48.114Z,74.38
2019-04-26T22:22:04.269Z,72.43
2019-04-26T22:26:13.316Z,72.54
2019-04-26T22:30:28.502Z,71.81
2019-04-26T22:34:37.284Z,71.48
2019-04-26T22:38:44.423Z,71.93
2019-04-26T22:42:54.668Z,71.30
2019-04-26T22:47:14.035Z,70.88
2019-04-26T22:51:20.979Z,71.06
2019-04-26T22:55:27.771Z,71.07
2019-04-26T22:59:38.093Z,71.57
2019-04-26T23:03:46.312Z,71.65
2019-04-26T23:07:54.685Z,72.38
2019-04-26T23:12:11.698Z,73.42
2019-04-26T23:16:27.337Z,73.88
2019-04-26T23:20:43.083Z,73.95
2019-04-26T23:24:56.656Z,74.12
2019-04-26T23:29:01.194Z,74.75
2019-04-26T23:33:07.929Z,75.54
2019-04-26T23:37:14.632Z,75.70
2019-04-26T23:41:23.440Z,76.36
2019-04-26T23:45:29.980Z,77.25
2019-04-26T23:49:36.715Z,77.77
2019-04-26T23:53:43.371Z,78.57
2019-04-26T23:57:50.149Z,79.17
